Terminal Aerodrome Forecast
Issued by NWS Lake Charles, LA

Home | Current Version | Previous Version | Text Only | Print | Product List | Glossary On
Versions: 1 2 3 4 5 6 7 8 9 10 11 12 13 14 15 16
000
FTUS44 KLCH 060520
TAFARA
TAF
KARA 060520Z 0606/0706 16005KT P6SM SCT028 BKN180
     FM060800 16003KT P6SM BKN028
     FM061500 19010KT P6SM SCT050 BKN190
     FM062300 15004KT P6SM BKN190
      AMD NOT SKED=

USA.gov is the U.S. government's official web portal to all federal, state and local government web resources and services.